Washington, California
Current Conditions -  °F | °C
As of 5:30 PM on Monday 20 Oct 2014 (Local Time) from KBLU Reporting Station
Haze Haze  
Wind Chill: 42°   Ceiling: 300
Heat Index: 48°   Visibility: 3mi
Dew Point: 45°   Wind: 14mph
Humidity: 89%   Direction: 160°SSE
Pressure: 30"   Gusts: NA
Location:  39.36°N, 120.8°W
Report Text: KBLU 210030Z AUTO 16012KT 3SM BR BKN003 OVC026 09/07 A3000 RMK AO2 RAB04E16 P0000 T00890072
Loading
Personal Weather Stations






























Interactive Weather Map
Tropical Storm Tracking
New forecast layout! Learn more

10-Day Weather Forecast

Advertisements
Track Severe Weather on mobile